Norco, CA (92860)

1:17 PM PDT on August 04, 2015 (GMT -0700)
Northside | | Change Station
CLOSE
Current Station
Personal Weather Station
Location: Norco, CA
Elevation: 663 ft
Nearby Weather Stations

Elev 663 ft 33.93 °N, 117.57 °W | Updated 2 minutes ago

Clear
Clear
95.4 °F
Feels Like 95 °F
N
5.0
Wind Variable Wind from WNW
Gusts 7.0 mph

Today
High -- | Low -- °F
--% Chance of Precip.
Yesterday
High -- | Low -- °F
Precip. -- in
6:03 AM 7:48 PM
Waning Gibbous, 75% visible
Pressure 29.89 in
Visibility 10.0 miles
Clouds Clear
Heat Index 95 °F
Dew Point 59 °F
Humidity 30%
Rainfall 0.00 in
Snow Depth Not available.
UV 12 out of 12
Pollen 4.00 out of 12
Air Quality Not available.
Flu Activity Not available.
METAR KAJO 041956Z AUTO 28010KT 10SM CLR 33/16 A2991 RMK AO2 T03270161 SLP122 $

More Conditions Fewer Conditions

Pressure 29.89 in
Visibility 10.0 miles
Clouds Clear
Heat Index 95 °F
Dew Point 59 °F
Humidity 30%
Rainfall 0.00 in
Snow Depth Not available.
UV 12 out of 12
Pollen 4.00 out of 12
Air Quality Not available.
Flu Activity Not available.
METAR KAJO 041956Z AUTO 28010KT 10SM CLR 33/16 A2991 RMK AO2 T03270161 SLP122 $

More Conditions Fewer Conditions

10-Day Weather Forecast

×

Almanac

Astronomy

Aug. 04, 2015 Rise Set
Actual Time
Civil Twilight
Nautical Twilight
Astronomical Twilight
Moon
Length of Visible Light
Length of Day
Tomorrow will be .
, % of the Moon is Illuminated

Today's Extremes

State Highs State Lows

Community

WunderPhotos

Upload Photos

1,843,962 photos uploaded!

WunderBlogs® & News

Nearby

Air Quality

  Air Quality AQ Index Pollutant
Not available.

Snow Depth

Station Depth Elevation

Earthquake Activity

City Distance Mag. Time & Date
Minimum magnitude displayed is 2.5.

Coastal Water Temperatures

Place Temperature

Stations

Nearby Weather Stations

Station Location Temp. Windchill Dew Point Humidity Wind Precip. Elev Updated Type